Time;durP1;ratioP1;P1;durP2;ratioP2;P2;SDS_P1;SDS_P2;PMS_P1;PMS_P2;Temp;Humidity;BMP_temperature;BMP_pressure;BME280_temperature;BME280_humidity;BME280_pressure;Samples;Min_cycle;Max_cycle;Signal;HPM_P1;HPM_P2
2021/03/26 00:01:10;;;;;;;;;26.00;22.00;;;;;;;;5021379;27;111930;-77
2021/03/26 00:03:38;;;;;;;;;21.00;18.67;;;;;;;;5016292;28;114302;-77
2021/03/26 00:06:05;;;;;;;;;20.67;20.33;;;;;;;;5016621;27;112434;-77
2021/03/26 00:08:31;;;;;;;;;19.00;19.00;;;;;;;;5016373;28;113379;-77
2021/03/26 00:10:58;;;;;;;;;23.33;19.00;;;;;;;;5008110;28;114622;-77
2021/03/26 00:13:24;;;;;;;;;22.00;21.00;;;;;;;;5016474;28;111996;-76
2021/03/26 00:15:50;;;;;;;;;24.67;19.00;;;;;;;;5016500;28;113877;-79
2021/03/26 00:18:17;;;;;;;;;21.67;20.33;;;;;;;;5016544;28;114085;-76
2021/03/26 00:20:43;;;;;;;;;21.33;21.00;;;;;;;;5016607;27;112302;-77
2021/03/26 00:23:09;;;;;;;;;21.67;19.67;;;;;;;;5019747;28;113411;-76
2021/03/26 00:25:35;;;;;;;;;23.00;19.67;;;;;;;;5017028;28;112267;-76
2021/03/26 00:28:01;;;;;;;;;21.67;20.67;;;;;;;;5016777;28;113514;-77
2021/03/26 00:30:28;;;;;;;;;22.00;20.00;;;;;;;;5015630;28;115019;-77
2021/03/26 00:32:54;;;;;;;;;25.67;22.00;;;;;;;;5016273;28;112420;-80
2021/03/26 00:35:21;;;;;;;;;22.00;22.00;;;;;;;;5016408;28;113642;-77
2021/03/26 00:37:47;;;;;;;;;21.33;20.33;;;;;;;;5015537;28;114195;-76
2021/03/26 00:40:14;;;;;;;;;20.67;19.67;;;;;;;;5016329;28;112085;-77
2021/03/26 00:42:41;;;;;;;;;21.67;20.00;;;;;;;;5016367;27;113926;-76
2021/03/26 00:45:08;;;;;;;;;20.00;19.00;;;;;;;;5019885;28;114327;-77
2021/03/26 00:47:34;;;;;;;;;26.00;22.00;;;;;;;;5015520;28;113674;-77
2021/03/26 00:50:00;;;;;;;;;22.67;19.67;;;;;;;;5015261;28;114471;-75
2021/03/26 00:52:26;;;;;;;;;21.33;18.67;;;;;;;;5016700;27;111962;-78
2021/03/26 00:54:52;;;;;;;;;24.00;20.00;;;;;;;;5012607;28;113951;-79
2021/03/26 00:57:18;;;;;;;;;21.00;21.00;;;;;;;;5014882;28;114277;-77
2021/03/26 00:59:44;;;;;;;;;23.00;19.67;;;;;;;;5016260;28;112113;-78
2021/03/26 01:02:10;;;;;;;;;22.67;21.00;;;;;;;;5016586;28;113408;-78
2021/03/26 01:04:36;;;;;;;;;22.67;21.00;;;;;;;;5015509;28;114031;-76
2021/03/26 01:07:03;;;;;;;;;21.00;19.00;;;;;;;;5020033;28;111988;-77
2021/03/26 01:09:30;;;;;;;;;21.67;19.33;;;;;;;;5014514;28;114214;-77
2021/03/26 01:11:56;;;;;;;;;25.33;25.00;;;;;;;;5016577;27;111878;-77
2021/03/26 01:14:23;;;;;;;;;20.67;16.67;;;;;;;;5011640;28;113573;-77
2021/03/26 01:16:49;;;;;;;;;23.00;18.67;;;;;;;;5015092;28;114419;-78
2021/03/26 01:19:15;;;;;;;;;23.33;17.67;;;;;;;;5016437;28;111883;-78
2021/03/26 01:21:41;;;;;;;;;25.67;21.33;;;;;;;;5015898;27;113994;-77
2021/03/26 01:24:08;;;;;;;;;21.33;20.00;;;;;;;;5014896;28;112937;-76
2021/03/26 01:26:35;;;;;;;;;24.00;23.33;;;;;;;;5020135;28;112071;-76
2021/03/26 01:29:01;;;;;;;;;24.00;22.33;;;;;;;;5015318;28;111976;-76
2021/03/26 01:31:28;;;;;;;;;25.67;23.00;;;;;;;;5015458;28;111830;-76
2021/03/26 01:33:55;;;;;;;;;26.00;22.33;;;;;;;;5016289;28;113759;-77
2021/03/26 01:36:21;;;;;;;;;23.33;21.00;;;;;;;;5015141;28;113446;-76
2021/03/26 01:38:47;;;;;;;;;22.00;18.00;;;;;;;;5015752;28;111946;-76
2021/03/26 01:41:15;;;;;;;;;20.00;20.00;;;;;;;;5015264;28;113126;-76
2021/03/26 01:43:43;;;;;;;;;24.67;21.00;;;;;;;;5015258;28;116306;-76
2021/03/26 01:46:10;;;;;;;;;22.00;20.67;;;;;;;;5016017;28;111973;-76
2021/03/26 01:48:38;;;;;;;;;31.33;26.33;;;;;;;;5018651;28;113477;-77
2021/03/26 01:51:08;;;;;;;;;19.33;17.67;;;;;;;;5015190;28;111977;-77
2021/03/26 01:53:34;;;;;;;;;24.33;19.67;;;;;;;;5014866;28;113823;-77
2021/03/26 01:56:01;;;;;;;;;24.33;20.00;;;;;;;;5017569;27;114360;-77
2021/03/26 01:58:29;;;;;;;;;27.00;24.33;;;;;;;;5018642;28;111838;-77
2021/03/26 02:00:57;;;;;;;;;22.33;21.33;;;;;;;;5019441;27;113220;-77
2021/03/26 02:03:26;;;;;;;;;27.00;25.00;;;;;;;;5014156;28;114852;-77
2021/03/26 02:05:52;;;;;;;;;25.00;22.67;;;;;;;;5015033;28;111914;-77
2021/03/26 02:08:21;;;;;;;;;26.00;24.33;;;;;;;;5014669;27;112830;-76
2021/03/26 02:10:47;;;;;;;;;22.67;21.67;;;;;;;;5018215;28;114014;-77
2021/03/26 02:13:17;;;;;;;;;21.67;19.33;;;;;;;;5018670;28;113517;-77
2021/03/26 02:15:44;;;;;;;;;22.00;22.00;;;;;;;;5017917;28;114412;-79
2021/03/26 02:18:15;;;;;;;;;21.67;21.67;;;;;;;;5018923;28;112029;-78
2021/03/26 02:20:44;;;;;;;;;28.00;21.67;;;;;;;;5018869;28;113699;-77
2021/03/26 02:23:11;;;;;;;;;25.00;21.67;;;;;;;;5018175;28;114230;-77
2021/03/26 02:25:37;;;;;;;;;22.67;22.00;;;;;;;;5018845;28;112732;-77
2021/03/26 02:28:04;;;;;;;;;21.67;18.67;;;;;;;;5009596;28;113491;-77
2021/03/26 02:30:32;;;;;;;;;19.00;19.00;;;;;;;;5018023;28;114104;-79
2021/03/26 02:32:58;;;;;;;;;23.00;21.67;;;;;;;;5021897;28;112181;-78
2021/03/26 02:35:27;;;;;;;;;19.67;18.67;;;;;;;;5014198;28;114168;-78
2021/03/26 02:37:55;;;;;;;;;23.67;20.00;;;;;;;;5017790;28;111999;-78
2021/03/26 02:40:24;;;;;;;;;23.33;22.33;;;;;;;;5018457;28;113614;-78
2021/03/26 02:42:54;;;;;;;;;23.00;18.67;;;;;;;;5017704;28;114029;-77
2021/03/26 02:45:22;;;;;;;;;22.67;20.00;;;;;;;;5018593;28;111993;-78
2021/03/26 02:47:54;;;;;;;;;24.33;23.33;;;;;;;;5017749;28;113937;-81
2021/03/26 02:50:22;;;;;;;;;24.00;20.00;;;;;;;;5017481;28;114387;-77
2021/03/26 02:52:51;;;;;;;;;24.00;21.00;;;;;;;;5015069;28;113225;-79
2021/03/26 02:55:20;;;;;;;;;25.33;23.00;;;;;;;;5020309;28;113749;-80
2021/03/26 02:57:49;;;;;;;;;23.00;23.00;;;;;;;;5018432;27;111940;-77
2021/03/26 03:00:19;;;;;;;;;24.00;20.67;;;;;;;;5018481;28;115178;-78
2021/03/26 03:02:47;;;;;;;;;23.67;21.67;;;;;;;;5017662;28;114329;-78
2021/03/26 03:05:16;;;;;;;;;26.33;18.00;;;;;;;;5018040;28;113312;-78
2021/03/26 03:07:44;;;;;;;;;24.00;23.00;;;;;;;;5017698;28;113502;-75
2021/03/26 03:10:20;;;;;;;;;23.67;23.67;;;;;;;;5017136;28;114124;-75
2021/03/26 03:12:46;;;;;;;;;23.00;19.67;;;;;;;;5017947;27;112326;-75
2021/03/26 03:15:18;;;;;;;;;19.00;16.33;;;;;;;;5017781;28;113687;-75
2021/03/26 03:17:48;;;;;;;;;25.00;21.00;;;;;;;;5021245;28;114240;-74
2021/03/26 03:20:17;;;;;;;;;22.00;19.33;;;;;;;;5018185;28;113533;-74
2021/03/26 03:22:44;;;;;;;;;26.00;22.00;;;;;;;;5016756;28;114758;-73
2021/03/26 03:25:12;;;;;;;;;22.00;19.33;;;;;;;;5017505;27;111921;-74
2021/03/26 03:27:40;;;;;;;;;19.67;19.67;;;;;;;;5017730;28;112613;-74
2021/03/26 03:30:13;;;;;;;;;18.00;18.00;;;;;;;;5016606;28;114134;-75
2021/03/26 03:32:45;;;;;;;;;23.67;20.33;;;;;;;;5017816;27;111823;-75
2021/03/26 03:35:14;;;;;;;;;25.00;20.00;;;;;;;;5017384;28;114397;-75
2021/03/26 03:37:44;;;;;;;;;24.00;21.00;;;;;;;;5020705;28;114314;-75
2021/03/26 03:40:14;;;;;;;;;21.00;20.00;;;;;;;;5017477;28;114280;-75
2021/03/26 03:42:45;;;;;;;;;23.33;21.33;;;;;;;;5016999;28;114149;-75
2021/03/26 03:45:16;;;;;;;;;16.00;15.33;;;;;;;;5017336;28;111912;-75
2021/03/26 03:47:46;;;;;;;;;22.33;21.00;;;;;;;;5017391;28;112973;-75
2021/03/26 03:50:16;;;;;;;;;26.00;21.67;;;;;;;;5016352;28;114152;-76
2021/03/26 03:52:45;;;;;;;;;22.67;22.00;;;;;;;;5017189;28;111893;-75
2021/03/26 03:55:13;;;;;;;;;27.00;21.33;;;;;;;;5017380;28;113662;-75
2021/03/26 03:57:43;;;;;;;;;25.00;18.00;;;;;;;;5016916;28;114364;-76
2021/03/26 04:00:12;;;;;;;;;25.33;22.33;;;;;;;;5021207;28;112338;-75
2021/03/26 04:02:42;;;;;;;;;20.67;19.67;;;;;;;;5017024;28;114730;-76
2021/03/26 04:05:12;;;;;;;;;20.67;20.67;;;;;;;;5017093;28;111897;-75
2021/03/26 04:07:42;;;;;;;;;29.00;24.00;;;;;;;;5016245;28;113375;-76
2021/03/26 04:10:10;;;;;;;;;23.33;21.67;;;;;;;;5015832;28;114144;-76
2021/03/26 04:12:37;;;;;;;;;25.67;25.33;;;;;;;;5016671;28;112393;-76
2021/03/26 04:15:09;;;;;;;;;25.67;22.33;;;;;;;;5016992;28;114435;-76
2021/03/26 04:17:38;;;;;;;;;24.33;22.00;;;;;;;;5015581;27;114223;-75
2021/03/26 04:20:05;;;;;;;;;25.00;23.67;;;;;;;;5016810;28;111853;-75
2021/03/26 04:22:37;;;;;;;;;20.67;20.67;;;;;;;;5019808;28;113466;-75
2021/03/26 04:25:08;;;;;;;;;25.33;23.33;;;;;;;;5016171;28;112119;-75
2021/03/26 04:27:35;;;;;;;;;24.67;21.33;;;;;;;;5017024;28;113462;-75
2021/03/26 04:30:03;;;;;;;;;24.33;20.00;;;;;;;;5015479;28;113257;-75
2021/03/26 04:32:30;;;;;;;;;19.33;19.33;;;;;;;;5016895;28;112432;-75
2021/03/26 04:34:56;;;;;;;;;21.33;18.33;;;;;;;;5016212;28;113745;-75
2021/03/26 04:37:26;;;;;;;;;23.67;22.00;;;;;;;;5011796;28;114646;-75
2021/03/26 04:39:56;;;;;;;;;24.67;19.00;;;;;;;;5011960;28;111833;-75
2021/03/26 04:42:25;;;;;;;;;22.33;20.33;;;;;;;;5016167;28;113767;-75
2021/03/26 04:44:52;;;;;;;;;20.33;19.00;;;;;;;;5019846;28;113696;-75
2021/03/26 04:47:21;;;;;;;;;26.33;23.00;;;;;;;;5016807;28;114487;-75
2021/03/26 04:49:49;;;;;;;;;24.00;19.33;;;;;;;;5015458;28;112802;-75
2021/03/26 04:52:19;;;;;;;;;16.00;15.00;;;;;;;;5016413;28;111946;-76
2021/03/26 04:54:48;;;;;;;;;14.67;14.33;;;;;;;;5016387;28;113554;-76
2021/03/26 04:57:18;;;;;;;;;20.33;17.33;;;;;;;;5015689;28;115020;-76
2021/03/26 04:59:49;;;;;;;;;20.00;17.33;;;;;;;;5016477;28;112198;-76
2021/03/26 05:02:16;;;;;;;;;17.33;15.00;;;;;;;;5016189;28;113533;-76
2021/03/26 05:04:44;;;;;;;;;20.67;17.33;;;;;;;;5015323;28;114081;-76
2021/03/26 05:07:13;;;;;;;;;21.00;18.67;;;;;;;;5019845;27;112243;-76
2021/03/26 05:09:41;;;;;;;;;16.00;15.00;;;;;;;;5015207;28;114507;-76
2021/03/26 05:12:09;;;;;;;;;20.67;19.67;;;;;;;;5015707;27;111973;-76
2021/03/26 05:14:40;;;;;;;;;27.67;20.67;;;;;;;;5016135;28;113882;-75
2021/03/26 05:17:08;;;;;;;;;21.00;19.00;;;;;;;;5014946;28;114409;-76
2021/03/26 05:19:37;;;;;;;;;22.00;22.00;;;;;;;;5016520;27;112433;-75
2021/03/26 05:22:12;;;;;;;;;17.33;16.00;;;;;;;;5012629;27;112744;-75
2021/03/26 05:24:41;;;;;;;;;14.33;14.00;;;;;;;;5015928;28;114222;-75
2021/03/26 05:27:09;;;;;;;;;19.67;17.33;;;;;;;;5016058;27;112021;-76
2021/03/26 05:29:35;;;;;;;;;21.00;18.00;;;;;;;;5019505;28;113613;-75
2021/03/26 05:32:10;;;;;;;;;18.67;16.00;;;;;;;;5018810;27;112019;-75
2021/03/26 05:34:41;;;;;;;;;19.67;19.00;;;;;;;;5019320;28;113700;-75
2021/03/26 05:37:13;;;;;;;;;20.33;18.00;;;;;;;;5018541;28;113997;-75
2021/03/26 05:39:40;;;;;;;;;19.67;18.33;;;;;;;;5019361;27;111832;-75
2021/03/26 05:42:13;;;;;;;;;19.33;16.67;;;;;;;;5019065;28;113659;-74
2021/03/26 05:45:01;;;;;;;;;23.00;19.33;;;;;;;;5018909;28;114135;-74
2021/03/26 05:47:36;;;;;;;;;30.33;26.67;;;;;;;;5016633;28;111925;-74
2021/03/26 05:50:11;;;;;;;;;25.00;23.67;;;;;;;;5021976;28;115334;-75
2021/03/26 05:52:43;;;;;;;;;22.67;21.33;;;;;;;;5010633;27;111893;-75
2021/03/26 05:55:19;;;;;;;;;23.00;23.00;;;;;;;;5019545;28;113590;-75
2021/03/26 05:57:52;;;;;;;;;24.00;22.00;;;;;;;;5017926;28;115196;-76
2021/03/26 06:00:48;;;;;;;;;22.67;19.67;;;;;;;;5019279;27;112941;-77
2021/03/26 06:03:36;;;;;;;;;21.33;20.00;;;;;;;;5019170;28;114219;-76
2021/03/26 06:06:11;;;;;;;;;16.00;14.67;;;;;;;;5015735;28;113908;-77
2021/03/26 06:08:47;;;;;;;;;18.33;18.33;;;;;;;;5014175;28;111934;-75
2021/03/26 06:11:25;;;;;;;;;23.67;23.67;;;;;;;;5019304;28;113703;-76
2021/03/26 06:14:05;;;;;;;;;20.33;19.00;;;;;;;;5021313;28;114442;-76
2021/03/26 06:16:39;;;;;;;;;21.33;19.33;;;;;;;;4984558;27;113903;-76
2021/03/26 06:19:36;;;;;;;;;25.00;21.67;;;;;;;;5017206;28;114682;-76
2021/03/26 06:22:13;;;;;;;;;25.33;23.00;;;;;;;;5018118;28;112006;-77
2021/03/26 06:24:55;;;;;;;;;21.67;19.00;;;;;;;;5019327;28;113730;-79
2021/03/26 06:27:26;;;;;;;;;20.67;20.00;;;;;;;;5018049;28;114192;-79
2021/03/26 06:30:16;;;;;;;;;25.33;22.33;;;;;;;;5015939;28;112052;-78
2021/03/26 06:33:10;;;;;;;;;23.67;20.67;;;;;;;;4994900;28;113558;-77
2021/03/26 06:35:51;;;;;;;;;27.00;21.00;;;;;;;;5016284;28;114303;-78
2021/03/26 06:38:34;;;;;;;;;27.67;22.33;;;;;;;;5015923;27;112031;-78
2021/03/26 06:41:08;;;;;;;;;24.33;23.00;;;;;;;;5012408;27;114034;-78
2021/03/26 06:43:53;;;;;;;;;30.00;26.00;;;;;;;;5017764;28;111869;-77
2021/03/26 06:46:25;;;;;;;;;25.00;25.00;;;;;;;;5017167;28;113629;-79
2021/03/26 06:48:55;;;;;;;;;31.00;25.00;;;;;;;;5015176;28;113996;-76
2021/03/26 06:51:27;;;;;;;;;29.67;24.00;;;;;;;;5017127;27;113270;-80
2021/03/26 06:54:01;;;;;;;;;29.00;27.33;;;;;;;;5011513;28;113554;-80
2021/03/26 06:56:48;;;;;;;;;24.00;21.00;;;;;;;;5004725;28;114275;-76
2021/03/26 06:59:20;;;;;;;;;27.00;27.00;;;;;;;;5016747;28;112917;-72
2021/03/26 07:02:05;;;;;;;;;25.00;20.33;;;;;;;;5019982;28;114124;-78
2021/03/26 07:04:49;;;;;;;;;27.00;24.00;;;;;;;;5015057;28;112751;-80
2021/03/26 07:07:37;;;;;;;;;29.67;25.67;;;;;;;;4982243;28;113661;-74
2021/03/26 07:10:30;;;;;;;;;27.33;25.00;;;;;;;;5012395;28;114365;-78
2021/03/26 07:13:04;;;;;;;;;22.67;18.00;;;;;;;;4975514;28;112458;-81
2021/03/26 07:15:32;;;;;;;;;24.33;22.33;;;;;;;;5013361;28;113564;-77
2021/03/26 07:18:20;;;;;;;;;27.67;25.67;;;;;;;;5017166;28;114590;-78
2021/03/26 07:20:58;;;;;;;;;31.67;26.67;;;;;;;;5017065;28;112927;-75
2021/03/26 07:23:41;;;;;;;;;30.00;25.33;;;;;;;;5013892;28;113538;-75
2021/03/26 07:26:22;;;;;;;;;29.67;26.67;;;;;;;;5014849;28;114027;-75
2021/03/26 07:28:56;;;;;;;;;32.33;31.00;;;;;;;;5017648;28;114071;-77
2021/03/26 07:31:29;;;;;;;;;33.33;31.67;;;;;;;;5013364;28;114106;-74
2021/03/26 07:34:03;;;;;;;;;33.00;30.67;;;;;;;;5013110;28;111787;-75
2021/03/26 07:36:36;;;;;;;;;37.00;28.00;;;;;;;;5014827;28;113515;-77
2021/03/26 07:39:20;;;;;;;;;45.33;31.67;;;;;;;;5017130;28;113842;-75
2021/03/26 07:42:09;;;;;;;;;34.67;32.00;;;;;;;;5017687;28;112722;-75
2021/03/26 07:44:44;;;;;;;;;36.33;23.33;;;;;;;;5014392;28;113956;-75
2021/03/26 07:47:27;;;;;;;;;31.00;27.33;;;;;;;;5021033;28;114822;-78
2021/03/26 07:50:09;;;;;;;;;26.67;23.67;;;;;;;;5014779;27;113721;-77
2021/03/26 07:52:41;;;;;;;;;21.33;21.33;;;;;;;;5012736;27;113958;-76
2021/03/26 07:55:20;;;;;;;;;26.00;23.00;;;;;;;;5015205;28;112348;-76
2021/03/26 07:57:55;;;;;;;;;29.33;26.67;;;;;;;;5015398;28;113688;-81
2021/03/26 08:00:25;;;;;;;;;34.33;25.67;;;;;;;;5013992;28;114255;-79
2021/03/26 08:03:06;;;;;;;;;27.67;25.67;;;;;;;;5014277;28;112284;-81
2021/03/26 08:05:36;;;;;;;;;26.67;22.33;;;;;;;;5013934;28;113855;-81
2021/03/26 08:08:14;;;;;;;;;26.67;25.00;;;;;;;;5017864;28;114307;-80
2021/03/26 08:10:46;;;;;;;;;29.67;25.00;;;;;;;;5017420;28;112916;-79
2021/03/26 08:13:35;;;;;;;;;27.00;26.00;;;;;;;;5013388;28;114025;-79
2021/03/26 08:16:16;;;;;;;;;56.00;40.00;;;;;;;;5002963;27;112796;-79
2021/03/26 08:18:51;;;;;;;;;41.00;33.00;;;;;;;;5011602;28;113458;-77
2021/03/26 08:21:19;;;;;;;;;43.00;31.00;;;;;;;;5012059;28;113970;-79
2021/03/26 08:23:51;;;;;;;;;82.67;52.67;;;;;;;;5014931;28;112318;-75
2021/03/26 08:26:24;;;;;;;;;68.33;48.33;;;;;;;;5013783;27;113636;-78
2021/03/26 08:29:16;;;;;;;;;34.33;28.33;;;;;;;;5013270;28;114076;-78
2021/03/26 08:31:55;;;;;;;;;34.67;30.67;;;;;;;;5012952;28;111945;-80
2021/03/26 08:34:33;;;;;;;;;44.00;32.00;;;;;;;;5015922;28;113696;-80
2021/03/26 08:37:04;;;;;;;;;35.00;27.67;;;;;;;;5009392;28;111950;-82
2021/03/26 08:39:35;;;;;;;;;35.00;30.67;;;;;;;;5017031;28;113504;-83
2021/03/26 08:42:04;;;;;;;;;31.67;29.33;;;;;;;;5015937;28;114233;-83
2021/03/26 08:44:33;;;;;;;;;34.33;29.67;;;;;;;;5013593;28;112725;-81
2021/03/26 08:47:03;;;;;;;;;31.33;25.00;;;;;;;;5013276;28;113696;-80
2021/03/26 08:49:41;;;;;;;;;37.50;32.50;;;;;;;;5013309;28;112824;-80
2021/03/26 08:52:19;;;;;;;;;25.33;24.00;;;;;;;;5011694;28;111924;-75
2021/03/26 08:54:55;;;;;;;;;21.00;17.00;;;;;;;;5014975;28;114135;-77
2021/03/26 08:57:27;;;;;;;;;23.00;21.67;;;;;;;;5021387;28;114190;-76
2021/03/26 09:00:04;;;;;;;;;20.33;17.33;;;;;;;;5019631;28;113713;-78
2021/03/26 09:02:48;;;;;;;;;32.25;23.00;;;;;;;;5011919;28;114071;-78
2021/03/26 09:05:33;;;;;;;;;20.67;19.33;;;;;;;;5009292;28;112290;-77
2021/03/26 09:08:04;;;;;;;;;25.25;20.00;;;;;;;;5010336;28;114016;-76
2021/03/26 09:10:56;;;;;;;;;25.00;22.25;;;;;;;;5011691;28;113988;-76
2021/03/26 09:13:30;;;;;;;;;22.50;20.00;;;;;;;;5014902;28;111836;-74
2021/03/26 09:15:57;;;;;;;;;22.50;20.00;;;;;;;;5010460;28;113756;-76
2021/03/26 09:18:38;;;;;;;;;18.00;18.00;;;;;;;;5014803;28;115524;-74
2021/03/26 09:21:09;;;;;;;;;31.50;24.00;;;;;;;;5004598;27;112715;-75
2021/03/26 09:23:53;;;;;;;;;20.75;19.00;;;;;;;;5011184;28;114483;-74
2021/03/26 09:26:43;;;;;;;;;24.25;21.00;;;;;;;;5008191;28;112009;-73
2021/03/26 09:29:10;;;;;;;;;25.25;20.00;;;;;;;;5013068;28;113680;-75
2021/03/26 09:31:40;;;;;;;;;15.00;15.00;;;;;;;;5011026;28;114004;-76
2021/03/26 09:34:16;;;;;;;;;22.75;20.00;;;;;;;;5010928;27;112442;-72
2021/03/26 09:36:45;;;;;;;;;24.25;23.75;;;;;;;;5009698;28;113598;-73
2021/03/26 09:39:13;;;;;;;;;25.25;21.50;;;;;;;;5009340;28;114217;-74
2021/03/26 09:41:46;;;;;;;;;26.25;24.00;;;;;;;;5014036;28;112622;-75
2021/03/26 09:44:21;;;;;;;;;26.75;24.75;;;;;;;;5017573;28;114114;-74
2021/03/26 09:46:50;;;;;;;;;53.67;41.67;;;;;;;;5013061;27;113369;-75
2021/03/26 09:49:21;;;;;;;;;30.00;25.00;;;;;;;;5013248;28;114075;-73
2021/03/26 09:51:50;;;;;;;;;23.25;19.75;;;;;;;;5011784;28;114254;-75
2021/03/26 09:54:21;;;;;;;;;24.00;20.00;;;;;;;;5013013;28;112350;-75
2021/03/26 09:56:51;;;;;;;;;23.75;18.75;;;;;;;;5012352;28;113810;-74
2021/03/26 09:59:27;;;;;;;;;17.00;16.25;;;;;;;;5012320;28;115343;-75
2021/03/26 10:01:58;;;;;;;;;18.75;18.75;;;;;;;;5011666;28;112006;-76
2021/03/26 10:04:33;;;;;;;;;18.00;18.00;;;;;;;;5011238;28;113715;-75
2021/03/26 10:07:06;;;;;;;;;20.00;18.75;;;;;;;;5011205;28;112531;-74
2021/03/26 10:09:39;;;;;;;;;21.25;20.00;;;;;;;;5012611;28;114062;-73
2021/03/26 10:12:13;;;;;;;;;20.25;19.00;;;;;;;;5011652;28;114836;-73
2021/03/26 10:14:44;;;;;;;;;18.25;17.00;;;;;;;;5011329;28;112320;-74
2021/03/26 10:17:21;;;;;;;;;17.25;16.00;;;;;;;;5013109;28;113451;-73
2021/03/26 10:19:49;;;;;;;;;15.50;14.75;;;;;;;;5015815;28;114242;-74
2021/03/26 10:22:21;;;;;;;;;15.50;15.00;;;;;;;;5018316;28;112127;-74
2021/03/26 10:24:49;;;;;;;;;35.75;28.75;;;;;;;;5016821;28;112883;-73
2021/03/26 10:27:18;;;;;;;;;17.25;14.75;;;;;;;;5020626;28;114362;-74
2021/03/26 10:29:45;;;;;;;;;17.25;15.25;;;;;;;;5017205;28;113745;-73
2021/03/26 10:32:26;;;;;;;;;19.00;14.00;;;;;;;;5016886;28;114647;-73
2021/03/26 10:34:53;;;;;;;;;13.00;13.00;;;;;;;;5015867;28;114749;-75
2021/03/26 10:37:24;;;;;;;;;17.75;16.50;;;;;;;;5016835;27;113490;-73
2021/03/26 10:39:53;;;;;;;;;18.00;15.00;;;;;;;;5016579;28;114141;-74
2021/03/26 10:42:29;;;;;;;;;53.00;34.25;;;;;;;;5016795;28;113105;-74
2021/03/26 10:45:08;;;;;;;;;22.00;19.25;;;;;;;;5012916;28;113623;-75
2021/03/26 10:47:41;;;;;;;;;64.00;44.50;;;;;;;;5015707;28;114504;-77
2021/03/26 10:50:18;;;;;;;;;20.75;17.00;;;;;;;;5020054;28;112226;-80
2021/03/26 10:52:47;;;;;;;;;17.00;13.75;;;;;;;;5017095;28;114592;-80
2021/03/26 10:55:17;;;;;;;;;17.50;16.75;;;;;;;;5017226;28;112049;-81
2021/03/26 10:57:45;;;;;;;;;18.50;16.75;;;;;;;;5017839;28;114523;-79
2021/03/26 11:00:19;;;;;;;;;15.75;15.25;;;;;;;;5017323;28;114163;-81
2021/03/26 11:02:54;;;;;;;;;18.00;14.25;;;;;;;;5014788;28;112977;-81
2021/03/26 11:05:24;;;;;;;;;15.75;14.50;;;;;;;;5014814;28;113860;-83
2021/03/26 11:08:10;;;;;;;;;17.50;14.25;;;;;;;;5015355;28;114583;-83
2021/03/26 11:10:38;;;;;;;;;18.50;18.00;;;;;;;;5014975;28;112842;-76
2021/03/26 11:13:08;;;;;;;;;18.00;17.00;;;;;;;;5018852;28;113347;-78
2021/03/26 11:15:37;;;;;;;;;16.00;16.00;;;;;;;;5016182;28;112433;-78
2021/03/26 11:18:07;;;;;;;;;20.75;19.75;;;;;;;;5015939;28;113444;-78
2021/03/26 11:20:39;;;;;;;;;22.75;21.75;;;;;;;;5016207;28;114144;-80
2021/03/26 11:23:11;;;;;;;;;12.50;12.25;;;;;;;;5015425;28;112152;-79
2021/03/26 11:25:38;;;;;;;;;22.75;19.00;;;;;;;;5015802;28;113946;-77
2021/03/26 11:28:13;;;;;;;;;20.00;18.00;;;;;;;;5015263;28;114887;-79
2021/03/26 11:30:50;;;;;;;;;20.50;19.00;;;;;;;;5016676;28;112576;-79
2021/03/26 11:33:23;;;;;;;;;22.00;18.00;;;;;;;;5011593;28;113615;-76
2021/03/26 11:35:51;;;;;;;;;27.75;22.25;;;;;;;;5016753;28;114342;-74
2021/03/26 11:38:21;;;;;;;;;25.25;23.75;;;;;;;;5014716;28;113512;-75
2021/03/26 11:40:54;;;;;;;;;21.75;21.75;;;;;;;;5011545;28;114411;-76
2021/03/26 11:43:22;;;;;;;;;19.00;16.25;;;;;;;;5014746;27;114362;-74
2021/03/26 11:45:56;;;;;;;;;20.75;17.00;;;;;;;;5011916;28;113974;-78
2021/03/26 11:48:35;;;;;;;;;14.00;12.75;;;;;;;;5009068;27;114320;-76
2021/03/26 11:51:11;;;;;;;;;12.50;11.50;;;;;;;;5013482;28;112782;-74
2021/03/26 11:53:41;;;;;;;;;17.00;14.50;;;;;;;;5015969;28;114636;-73
2021/03/26 11:56:20;;;;;;;;;13.50;12.50;;;;;;;;5012347;28;114582;-73
2021/03/26 11:58:57;;;;;;;;;13.75;13.75;;;;;;;;5015485;27;112617;-74
2021/03/26 12:01:27;;;;;;;;;19.00;14.50;;;;;;;;5014997;28;114010;-73
2021/03/26 12:03:59;;;;;;;;;18.00;18.00;;;;;;;;5014968;27;112397;-73
2021/03/26 12:06:29;;;;;;;;;18.25;18.25;;;;;;;;5015152;28;114236;-73
2021/03/26 12:08:58;;;;;;;;;18.50;17.00;;;;;;;;5009484;28;114306;-72
2021/03/26 12:11:29;;;;;;;;;17.25;15.50;;;;;;;;5015719;27;111944;-73
2021/03/26 12:14:00;;;;;;;;;14.00;14.00;;;;;;;;5014207;28;113920;-72
2021/03/26 12:16:28;;;;;;;;;22.00;19.75;;;;;;;;5014743;28;115238;-73
2021/03/26 12:18:54;;;;;;;;;19.50;18.25;;;;;;;;5018486;28;112319;-72
2021/03/26 12:21:40;;;;;;;;;22.25;22.25;;;;;;;;5014242;28;114748;-73
2021/03/26 12:24:16;;;;;;;;;20.75;19.00;;;;;;;;5002418;28;113968;-72
2021/03/26 12:26:45;;;;;;;;;17.00;16.00;;;;;;;;5009923;28;114567;-72
2021/03/26 12:29:26;;;;;;;;;19.00;18.00;;;;;;;;5013929;28;114394;-73
2021/03/26 12:31:55;;;;;;;;;11.75;11.75;;;;;;;;5011500;28;113392;-73
2021/03/26 12:34:38;;;;;;;;;17.25;17.00;;;;;;;;5008398;28;112628;-73
2021/03/26 12:37:07;;;;;;;;;18.75;16.75;;;;;;;;4982240;27;113949;-73
2021/03/26 12:39:35;;;;;;;;;19.00;15.75;;;;;;;;5013228;28;113414;-73
2021/03/26 12:42:08;;;;;;;;;25.50;21.00;;;;;;;;5011171;28;113613;-72
2021/03/26 12:44:36;;;;;;;;;20.50;15.00;;;;;;;;5011781;28;112009;-73
2021/03/26 12:47:16;;;;;;;;;18.75;15.00;;;;;;;;5009934;28;113632;-73
2021/03/26 12:49:47;;;;;;;;;16.00;15.50;;;;;;;;5014173;28;114713;-75
2021/03/26 12:52:23;;;;;;;;;19.50;18.50;;;;;;;;5015326;28;113286;-73
2021/03/26 12:54:58;;;;;;;;;14.75;14.00;;;;;;;;5015512;28;114396;-73
2021/03/26 12:57:26;;;;;;;;;24.75;20.75;;;;;;;;5014404;28;113463;-74
2021/03/26 12:59:56;;;;;;;;;16.25;14.50;;;;;;;;5014818;27;112196;-81
2021/03/26 13:02:26;;;;;;;;;20.50;17.25;;;;;;;;5014710;28;115814;-74
2021/03/26 13:04:55;;;;;;;;;18.00;17.50;;;;;;;;5015757;28;115263;-72
2021/03/26 13:07:26;;;;;;;;;15.50;15.50;;;;;;;;5011505;28;113586;-72
2021/03/26 13:09:56;;;;;;;;;29.00;25.75;;;;;;;;5011693;27;114204;-72
2021/03/26 13:12:26;;;;;;;;;16.00;16.00;;;;;;;;5013408;27;112058;-72
2021/03/26 13:14:55;;;;;;;;;22.25;20.50;;;;;;;;5012679;27;113463;-73
2021/03/26 13:17:22;;;;;;;;;25.00;25.00;;;;;;;;5012826;28;114032;-73
2021/03/26 13:19:49;;;;;;;;;25.25;24.75;;;;;;;;5013920;28;112038;-72
2021/03/26 13:22:20;;;;;;;;;21.25;20.00;;;;;;;;5014109;28;113529;-72
2021/03/26 13:24:55;;;;;;;;;12.25;11.75;;;;;;;;5008117;28;115139;-71
2021/03/26 13:27:40;;;;;;;;;18.50;15.25;;;;;;;;5018047;28;112414;-71
2021/03/26 13:30:17;;;;;;;;;17.75;16.00;;;;;;;;5012695;28;114359;-71
2021/03/26 13:33:03;;;;;;;;;15.50;14.50;;;;;;;;5014218;28;112062;-71
2021/03/26 13:35:31;;;;;;;;;15.50;14.75;;;;;;;;5009602;28;113567;-71
2021/03/26 13:38:00;;;;;;;;;14.00;13.75;;;;;;;;5006142;28;114080;-71
2021/03/26 13:40:28;;;;;;;;;14.75;13.75;;;;;;;;5011517;28;112172;-70
2021/03/26 13:43:01;;;;;;;;;17.75;14.50;;;;;;;;5007921;28;112438;-71
2021/03/26 13:45:28;;;;;;;;;15.75;13.50;;;;;;;;5005327;28;114398;-71
2021/03/26 13:47:58;;;;;;;;;15.00;12.75;;;;;;;;5012832;28;111933;-74
2021/03/26 13:50:34;;;;;;;;;13.50;12.75;;;;;;;;5017362;27;113595;-76
2021/03/26 13:53:05;;;;;;;;;13.25;13.25;;;;;;;;5013144;28;112151;-75
2021/03/26 13:55:33;;;;;;;;;17.00;14.75;;;;;;;;5012933;28;113807;-72
2021/03/26 13:58:14;;;;;;;;;16.25;14.00;;;;;;;;5012127;28;114384;-72
2021/03/26 14:00:43;;;;;;;;;15.00;12.00;;;;;;;;5004397;28;112875;-73
2021/03/26 14:03:17;;;;;;;;;17.00;13.25;;;;;;;;5017204;28;113672;-73
2021/03/26 14:05:45;;;;;;;;;17.50;13.75;;;;;;;;5016297;28;114476;-73
2021/03/26 14:08:22;;;;;;;;;17.75;13.75;;;;;;;;5016702;28;111890;-73
2021/03/26 14:10:52;;;;;;;;;12.00;12.00;;;;;;;;5016321;28;113596;-73
2021/03/26 14:13:20;;;;;;;;;14.75;12.25;;;;;;;;5018857;28;114947;-73
2021/03/26 14:15:57;;;;;;;;;12.75;12.75;;;;;;;;5014812;28;113536;-72
2021/03/26 14:18:26;;;;;;;;;12.50;12.50;;;;;;;;5013817;28;114977;-72
2021/03/26 14:20:55;;;;;;;;;14.50;12.00;;;;;;;;5011744;27;113968;-71
2021/03/26 14:23:24;;;;;;;;;13.25;11.00;;;;;;;;5016831;28;113423;-72
2021/03/26 14:25:56;;;;;;;;;12.00;11.25;;;;;;;;5014861;28;114541;-72
2021/03/26 14:28:26;;;;;;;;;16.50;15.00;;;;;;;;5015550;28;111985;-73
2021/03/26 14:30:56;;;;;;;;;18.00;14.25;;;;;;;;5015464;28;112470;-73